sensor_id;sensor_type;location;lat;lon;timestamp;P1;durP1;ratioP1;P2;durP2;ratioP2
9716;SDS011;4897;43.570;27.832;2022-08-27T00:00:28;37.22;;;7.25;;
9716;SDS011;4897;43.570;27.832;2022-08-27T00:02:55;39.10;;;6.47;;
9716;SDS011;4897;43.570;27.832;2022-08-27T00:05:22;47.38;;;6.80;;
9716;SDS011;4897;43.570;27.832;2022-08-27T00:07:48;29.80;;;5.90;;
9716;SDS011;4897;43.570;27.832;2022-08-27T00:10:17;43.53;;;6.43;;
9716;SDS011;4897;43.570;27.832;2022-08-27T00:12:48;29.48;;;7.55;;
9716;SDS011;4897;43.570;27.832;2022-08-27T00:15:15;35.22;;;7.00;;
9716;SDS011;4897;43.570;27.832;2022-08-27T00:17:44;35.97;;;6.80;;
9716;SDS011;4897;43.570;27.832;2022-08-27T00:20:13;23.17;;;6.43;;
9716;SDS011;4897;43.570;27.832;2022-08-27T00:22:42;36.95;;;6.43;;
9716;SDS011;4897;43.570;27.832;2022-08-27T00:25:09;38.13;;;7.05;;
9716;SDS011;4897;43.570;27.832;2022-08-27T00:27:37;38.03;;;6.80;;
9716;SDS011;4897;43.570;27.832;2022-08-27T00:30:08;45.05;;;7.43;;
9716;SDS011;4897;43.570;27.832;2022-08-27T00:32:38;33.92;;;6.60;;
9716;SDS011;4897;43.570;27.832;2022-08-27T00:35:07;35.88;;;6.50;;
9716;SDS011;4897;43.570;27.832;2022-08-27T00:37:35;41.10;;;6.07;;
9716;SDS011;4897;43.570;27.832;2022-08-27T00:40:03;37.90;;;6.50;;
9716;SDS011;4897;43.570;27.832;2022-08-27T00:42:30;41.92;;;6.80;;
9716;SDS011;4897;43.570;27.832;2022-08-27T00:44:57;43.90;;;6.97;;
9716;SDS011;4897;43.570;27.832;2022-08-27T00:47:27;33.17;;;5.82;;
9716;SDS011;4897;43.570;27.832;2022-08-27T00:49:59;19.17;;;5.68;;
9716;SDS011;4897;43.570;27.832;2022-08-27T00:52:30;36.47;;;6.22;;
9716;SDS011;4897;43.570;27.832;2022-08-27T00:55:01;35.80;;;6.22;;
9716;SDS011;4897;43.570;27.832;2022-08-27T00:57:33;53.28;;;7.35;;
9716;SDS011;4897;43.570;27.832;2022-08-27T01:00:08;61.53;;;7.18;;
9716;SDS011;4897;43.570;27.832;2022-08-27T01:02:38;29.10;;;5.68;;
9716;SDS011;4897;43.570;27.832;2022-08-27T01:05:07;48.55;;;6.55;;
9716;SDS011;4897;43.570;27.832;2022-08-27T01:07:40;36.42;;;6.22;;
9716;SDS011;4897;43.570;27.832;2022-08-27T01:10:11;28.65;;;5.60;;
9716;SDS011;4897;43.570;27.832;2022-08-27T01:12:42;34.25;;;6.03;;
9716;SDS011;4897;43.570;27.832;2022-08-27T01:15:10;37.97;;;6.78;;
9716;SDS011;4897;43.570;27.832;2022-08-27T01:17:41;30.73;;;5.90;;
9716;SDS011;4897;43.570;27.832;2022-08-27T01:20:13;42.80;;;6.35;;
9716;SDS011;4897;43.570;27.832;2022-08-27T01:22:46;27.33;;;6.07;;
9716;SDS011;4897;43.570;27.832;2022-08-27T01:25:23;33.53;;;5.95;;
9716;SDS011;4897;43.570;27.832;2022-08-27T01:27:51;28.80;;;4.97;;
9716;SDS011;4897;43.570;27.832;2022-08-27T01:30:21;28.65;;;7.18;;
9716;SDS011;4897;43.570;27.832;2022-08-27T01:32:55;31.02;;;6.15;;
9716;SDS011;4897;43.570;27.832;2022-08-27T01:35:23;31.15;;;6.35;;
9716;SDS011;4897;43.570;27.832;2022-08-27T01:37:51;35.90;;;5.95;;
9716;SDS011;4897;43.570;27.832;2022-08-27T01:40:20;43.00;;;6.68;;
9716;SDS011;4897;43.570;27.832;2022-08-27T01:42:49;22.70;;;5.57;;
9716;SDS011;4897;43.570;27.832;2022-08-27T01:45:28;27.77;;;6.07;;
9716;SDS011;4897;43.570;27.832;2022-08-27T01:47:57;37.17;;;6.38;;
9716;SDS011;4897;43.570;27.832;2022-08-27T01:50:26;38.65;;;6.88;;
9716;SDS011;4897;43.570;27.832;2022-08-27T01:52:56;40.85;;;6.15;;
9716;SDS011;4897;43.570;27.832;2022-08-27T01:55:28;29.67;;;6.35;;
9716;SDS011;4897;43.570;27.832;2022-08-27T01:58:00;33.05;;;6.50;;
9716;SDS011;4897;43.570;27.832;2022-08-27T02:00:29;35.67;;;5.93;;
9716;SDS011;4897;43.570;27.832;2022-08-27T02:03:00;25.02;;;5.68;;
9716;SDS011;4897;43.570;27.832;2022-08-27T02:05:30;26.95;;;5.70;;
9716;SDS011;4897;43.570;27.832;2022-08-27T02:07:58;31.48;;;5.45;;
9716;SDS011;4897;43.570;27.832;2022-08-27T02:10:26;27.85;;;6.28;;
9716;SDS011;4897;43.570;27.832;2022-08-27T02:12:55;36.67;;;5.85;;
9716;SDS011;4897;43.570;27.832;2022-08-27T02:15:26;35.97;;;5.97;;
9716;SDS011;4897;43.570;27.832;2022-08-27T02:17:54;24.38;;;6.22;;
9716;SDS011;4897;43.570;27.832;2022-08-27T02:20:23;25.05;;;6.00;;
9716;SDS011;4897;43.570;27.832;2022-08-27T02:22:50;35.35;;;5.75;;
9716;SDS011;4897;43.570;27.832;2022-08-27T02:25:21;39.88;;;6.63;;
9716;SDS011;4897;43.570;27.832;2022-08-27T02:27:51;39.22;;;6.50;;
9716;SDS011;4897;43.570;27.832;2022-08-27T02:30:19;21.23;;;5.75;;
9716;SDS011;4897;43.570;27.832;2022-08-27T02:32:49;26.73;;;5.82;;
9716;SDS011;4897;43.570;27.832;2022-08-27T02:35:17;32.63;;;6.63;;
9716;SDS011;4897;43.570;27.832;2022-08-27T02:37:47;30.73;;;5.95;;
9716;SDS011;4897;43.570;27.832;2022-08-27T02:40:17;30.83;;;6.03;;
9716;SDS011;4897;43.570;27.832;2022-08-27T02:42:46;27.40;;;5.85;;
9716;SDS011;4897;43.570;27.832;2022-08-27T02:45:13;34.17;;;5.68;;
9716;SDS011;4897;43.570;27.832;2022-08-27T02:47:41;24.98;;;5.80;;
9716;SDS011;4897;43.570;27.832;2022-08-27T02:50:10;26.50;;;6.82;;
9716;SDS011;4897;43.570;27.832;2022-08-27T02:52:38;33.22;;;6.53;;
9716;SDS011;4897;43.570;27.832;2022-08-27T02:55:06;25.30;;;6.78;;
9716;SDS011;4897;43.570;27.832;2022-08-27T02:57:34;32.03;;;6.90;;
9716;SDS011;4897;43.570;27.832;2022-08-27T03:00:01;41.53;;;7.10;;
9716;SDS011;4897;43.570;27.832;2022-08-27T03:02:32;30.58;;;6.13;;
9716;SDS011;4897;43.570;27.832;2022-08-27T03:04:59;33.22;;;6.35;;
9716;SDS011;4897;43.570;27.832;2022-08-27T03:07:27;39.75;;;7.03;;
9716;SDS011;4897;43.570;27.832;2022-08-27T03:09:54;33.65;;;6.18;;
9716;SDS011;4897;43.570;27.832;2022-08-27T03:12:21;32.80;;;6.40;;
9716;SDS011;4897;43.570;27.832;2022-08-27T03:14:48;35.17;;;6.40;;
9716;SDS011;4897;43.570;27.832;2022-08-27T03:17:15;40.42;;;7.32;;
9716;SDS011;4897;43.570;27.832;2022-08-27T03:19:59;40.38;;;6.95;;
9716;SDS011;4897;43.570;27.832;2022-08-27T03:22:32;43.45;;;6.97;;
9716;SDS011;4897;43.570;27.832;2022-08-27T03:25:00;33.45;;;6.20;;
9716;SDS011;4897;43.570;27.832;2022-08-27T03:27:27;29.38;;;6.88;;
9716;SDS011;4897;43.570;27.832;2022-08-27T03:29:54;21.75;;;7.90;;
9716;SDS011;4897;43.570;27.832;2022-08-27T03:32:21;54.60;;;7.68;;
9716;SDS011;4897;43.570;27.832;2022-08-27T03:34:48;35.30;;;7.75;;
9716;SDS011;4897;43.570;27.832;2022-08-27T03:37:15;30.90;;;7.40;;
9716;SDS011;4897;43.570;27.832;2022-08-27T03:39:44;38.90;;;8.35;;
9716;SDS011;4897;43.570;27.832;2022-08-27T03:42:14;28.60;;;8.13;;
9716;SDS011;4897;43.570;27.832;2022-08-27T03:44:41;45.83;;;7.63;;
9716;SDS011;4897;43.570;27.832;2022-08-27T03:47:11;31.52;;;7.75;;
9716;SDS011;4897;43.570;27.832;2022-08-27T03:49:38;43.75;;;8.02;;
9716;SDS011;4897;43.570;27.832;2022-08-27T03:52:06;37.30;;;8.93;;
9716;SDS011;4897;43.570;27.832;2022-08-27T03:54:33;44.33;;;8.55;;
9716;SDS011;4897;43.570;27.832;2022-08-27T03:57:02;27.67;;;7.30;;
9716;SDS011;4897;43.570;27.832;2022-08-27T03:59:30;36.90;;;8.13;;
9716;SDS011;4897;43.570;27.832;2022-08-27T04:01:57;34.28;;;8.10;;
9716;SDS011;4897;43.570;27.832;2022-08-27T04:04:25;37.92;;;7.97;;
9716;SDS011;4897;43.570;27.832;2022-08-27T04:06:52;36.40;;;7.53;;
9716;SDS011;4897;43.570;27.832;2022-08-27T04:09:20;29.27;;;7.80;;
9716;SDS011;4897;43.570;27.832;2022-08-27T04:11:47;32.85;;;7.85;;
9716;SDS011;4897;43.570;27.832;2022-08-27T04:14:16;35.58;;;8.52;;
9716;SDS011;4897;43.570;27.832;2022-08-27T04:16:43;32.03;;;6.70;;
9716;SDS011;4897;43.570;27.832;2022-08-27T04:19:10;58.53;;;7.35;;
9716;SDS011;4897;43.570;27.832;2022-08-27T04:21:39;30.35;;;6.93;;
9716;SDS011;4897;43.570;27.832;2022-08-27T04:24:06;36.63;;;7.55;;
9716;SDS011;4897;43.570;27.832;2022-08-27T04:26:37;22.85;;;7.45;;
9716;SDS011;4897;43.570;27.832;2022-08-27T04:29:06;24.35;;;7.10;;
9716;SDS011;4897;43.570;27.832;2022-08-27T04:31:35;45.25;;;7.90;;
9716;SDS011;4897;43.570;27.832;2022-08-27T04:34:04;44.90;;;8.38;;
9716;SDS011;4897;43.570;27.832;2022-08-27T04:36:32;39.05;;;8.40;;
9716;SDS011;4897;43.570;27.832;2022-08-27T04:38:58;37.50;;;7.25;;
9716;SDS011;4897;43.570;27.832;2022-08-27T04:41:26;32.50;;;7.50;;
9716;SDS011;4897;43.570;27.832;2022-08-27T04:44:00;53.83;;;7.57;;
9716;SDS011;4897;43.570;27.832;2022-08-27T04:46:29;33.42;;;7.70;;
9716;SDS011;4897;43.570;27.832;2022-08-27T04:49:02;24.83;;;6.80;;
9716;SDS011;4897;43.570;27.832;2022-08-27T04:51:31;33.28;;;7.50;;
9716;SDS011;4897;43.570;27.832;2022-08-27T04:54:00;34.95;;;8.00;;
9716;SDS011;4897;43.570;27.832;2022-08-27T04:56:28;29.75;;;6.85;;
9716;SDS011;4897;43.570;27.832;2022-08-27T04:58:55;31.85;;;7.47;;
9716;SDS011;4897;43.570;27.832;2022-08-27T05:01:23;28.85;;;7.45;;
9716;SDS011;4897;43.570;27.832;2022-08-27T05:03:51;24.88;;;7.45;;
9716;SDS011;4897;43.570;27.832;2022-08-27T05:06:20;35.60;;;7.82;;
9716;SDS011;4897;43.570;27.832;2022-08-27T05:08:49;37.50;;;7.32;;
9716;SDS011;4897;43.570;27.832;2022-08-27T05:11:18;24.20;;;6.70;;
9716;SDS011;4897;43.570;27.832;2022-08-27T05:13:46;34.63;;;7.45;;
9716;SDS011;4897;43.570;27.832;2022-08-27T05:16:15;33.13;;;6.93;;
9716;SDS011;4897;43.570;27.832;2022-08-27T05:18:43;32.40;;;7.00;;
9716;SDS011;4897;43.570;27.832;2022-08-27T05:21:14;27.80;;;6.35;;
9716;SDS011;4897;43.570;27.832;2022-08-27T05:23:47;38.75;;;6.40;;
9716;SDS011;4897;43.570;27.832;2022-08-27T05:26:15;28.95;;;6.18;;
9716;SDS011;4897;43.570;27.832;2022-08-27T05:28:42;27.50;;;6.25;;
9716;SDS011;4897;43.570;27.832;2022-08-27T05:31:09;30.70;;;6.10;;
9716;SDS011;4897;43.570;27.832;2022-08-27T05:33:39;29.50;;;6.47;;
9716;SDS011;4897;43.570;27.832;2022-08-27T05:36:13;34.60;;;6.63;;
9716;SDS011;4897;43.570;27.832;2022-08-27T05:38:41;35.55;;;6.55;;
9716;SDS011;4897;43.570;27.832;2022-08-27T05:41:11;48.53;;;6.63;;
9716;SDS011;4897;43.570;27.832;2022-08-27T05:43:40;25.48;;;5.70;;
9716;SDS011;4897;43.570;27.832;2022-08-27T05:46:09;41.47;;;6.03;;
9716;SDS011;4897;43.570;27.832;2022-08-27T05:48:37;26.13;;;5.97;;
9716;SDS011;4897;43.570;27.832;2022-08-27T05:51:07;35.03;;;6.35;;
9716;SDS011;4897;43.570;27.832;2022-08-27T05:53:35;33.72;;;6.82;;
9716;SDS011;4897;43.570;27.832;2022-08-27T05:56:03;32.10;;;6.18;;
9716;SDS011;4897;43.570;27.832;2022-08-27T05:58:32;53.33;;;6.78;;
9716;SDS011;4897;43.570;27.832;2022-08-27T06:01:17;45.53;;;7.20;;
9716;SDS011;4897;43.570;27.832;2022-08-27T06:03:48;36.08;;;5.97;;
9716;SDS011;4897;43.570;27.832;2022-08-27T06:06:17;37.33;;;6.32;;
9716;SDS011;4897;43.570;27.832;2022-08-27T06:08:44;37.80;;;6.25;;
9716;SDS011;4897;43.570;27.832;2022-08-27T06:11:11;39.80;;;6.00;;
9716;SDS011;4897;43.570;27.832;2022-08-27T06:13:40;34.47;;;5.93;;
9716;SDS011;4897;43.570;27.832;2022-08-27T06:16:08;36.78;;;6.13;;
9716;SDS011;4897;43.570;27.832;2022-08-27T06:18:38;50.33;;;7.85;;
9716;SDS011;4897;43.570;27.832;2022-08-27T06:21:06;42.13;;;6.20;;
9716;SDS011;4897;43.570;27.832;2022-08-27T06:23:38;41.38;;;5.85;;
9716;SDS011;4897;43.570;27.832;2022-08-27T06:26:09;48.92;;;6.28;;
9716;SDS011;4897;43.570;27.832;2022-08-27T06:28:37;45.47;;;6.13;;
9716;SDS011;4897;43.570;27.832;2022-08-27T06:31:07;47.40;;;6.30;;
9716;SDS011;4897;43.570;27.832;2022-08-27T06:33:39;41.65;;;5.75;;
9716;SDS011;4897;43.570;27.832;2022-08-27T06:36:15;46.17;;;6.35;;
9716;SDS011;4897;43.570;27.832;2022-08-27T06:38:44;45.33;;;6.32;;
9716;SDS011;4897;43.570;27.832;2022-08-27T06:41:15;40.13;;;6.38;;
9716;SDS011;4897;43.570;27.832;2022-08-27T06:43:45;30.13;;;6.32;;
9716;SDS011;4897;43.570;27.832;2022-08-27T06:46:13;42.15;;;5.60;;
9716;SDS011;4897;43.570;27.832;2022-08-27T06:48:43;39.80;;;5.75;;
9716;SDS011;4897;43.570;27.832;2022-08-27T06:51:15;45.47;;;6.10;;
9716;SDS011;4897;43.570;27.832;2022-08-27T06:53:43;28.38;;;6.60;;
9716;SDS011;4897;43.570;27.832;2022-08-27T06:56:11;29.58;;;5.55;;
9716;SDS011;4897;43.570;27.832;2022-08-27T06:58:39;40.33;;;5.82;;
9716;SDS011;4897;43.570;27.832;2022-08-27T07:01:12;37.67;;;6.43;;
9716;SDS011;4897;43.570;27.832;2022-08-27T07:03:40;45.75;;;6.03;;
9716;SDS011;4897;43.570;27.832;2022-08-27T07:06:08;36.35;;;5.15;;
9716;SDS011;4897;43.570;27.832;2022-08-27T07:08:35;33.88;;;5.95;;
9716;SDS011;4897;43.570;27.832;2022-08-27T07:11:04;38.75;;;6.40;;
9716;SDS011;4897;43.570;27.832;2022-08-27T07:13:31;21.10;;;5.10;;
9716;SDS011;4897;43.570;27.832;2022-08-27T07:16:03;47.10;;;6.82;;
9716;SDS011;4897;43.570;27.832;2022-08-27T07:18:32;36.58;;;6.15;;
9716;SDS011;4897;43.570;27.832;2022-08-27T07:21:00;41.83;;;5.82;;
9716;SDS011;4897;43.570;27.832;2022-08-27T07:23:29;43.35;;;5.82;;
9716;SDS011;4897;43.570;27.832;2022-08-27T07:25:57;33.05;;;5.70;;
9716;SDS011;4897;43.570;27.832;2022-08-27T07:28:24;35.00;;;6.25;;
9716;SDS011;4897;43.570;27.832;2022-08-27T07:30:51;29.85;;;6.32;;
9716;SDS011;4897;43.570;27.832;2022-08-27T07:33:19;25.10;;;5.32;;
9716;SDS011;4897;43.570;27.832;2022-08-27T07:35:47;47.05;;;6.32;;
9716;SDS011;4897;43.570;27.832;2022-08-27T07:38:16;29.10;;;5.70;;
9716;SDS011;4897;43.570;27.832;2022-08-27T07:40:43;44.28;;;6.38;;
9716;SDS011;4897;43.570;27.832;2022-08-27T07:43:12;40.65;;;6.47;;
9716;SDS011;4897;43.570;27.832;2022-08-27T07:45:59;36.65;;;6.32;;
9716;SDS011;4897;43.570;27.832;2022-08-27T07:48:26;53.92;;;7.28;;
9716;SDS011;4897;43.570;27.832;2022-08-27T07:50:55;48.80;;;7.15;;
9716;SDS011;4897;43.570;27.832;2022-08-27T07:53:25;36.70;;;6.10;;
9716;SDS011;4897;43.570;27.832;2022-08-27T07:56:00;43.95;;;6.40;;
9716;SDS011;4897;43.570;27.832;2022-08-27T07:58:28;46.40;;;5.80;;
9716;SDS011;4897;43.570;27.832;2022-08-27T08:00:55;45.97;;;7.07;;
9716;SDS011;4897;43.570;27.832;2022-08-27T08:03:22;37.65;;;5.35;;
9716;SDS011;4897;43.570;27.832;2022-08-27T08:05:49;47.83;;;6.68;;
9716;SDS011;4897;43.570;27.832;2022-08-27T08:08:20;39.53;;;6.20;;
9716;SDS011;4897;43.570;27.832;2022-08-27T08:10:49;42.78;;;6.85;;
9716;SDS011;4897;43.570;27.832;2022-08-27T08:13:16;46.58;;;6.38;;
9716;SDS011;4897;43.570;27.832;2022-08-27T08:15:46;55.53;;;6.47;;
9716;SDS011;4897;43.570;27.832;2022-08-27T08:18:15;38.22;;;6.18;;
9716;SDS011;4897;43.570;27.832;2022-08-27T08:20:44;49.85;;;6.22;;
9716;SDS011;4897;43.570;27.832;2022-08-27T08:23:11;46.17;;;6.50;;
9716;SDS011;4897;43.570;27.832;2022-08-27T08:25:40;47.13;;;6.80;;
9716;SDS011;4897;43.570;27.832;2022-08-27T08:28:08;41.20;;;6.40;;
9716;SDS011;4897;43.570;27.832;2022-08-27T08:30:37;39.35;;;6.90;;
9716;SDS011;4897;43.570;27.832;2022-08-27T08:33:07;48.13;;;6.95;;
9716;SDS011;4897;43.570;27.832;2022-08-27T08:35:36;32.15;;;6.63;;
9716;SDS011;4897;43.570;27.832;2022-08-27T08:38:05;77.25;;;7.47;;
9716;SDS011;4897;43.570;27.832;2022-08-27T08:40:33;41.83;;;7.13;;
9716;SDS011;4897;43.570;27.832;2022-08-27T08:43:03;48.25;;;6.30;;
9716;SDS011;4897;43.570;27.832;2022-08-27T08:45:33;53.92;;;7.38;;
9716;SDS011;4897;43.570;27.832;2022-08-27T08:48:03;46.47;;;7.05;;
9716;SDS011;4897;43.570;27.832;2022-08-27T08:50:33;48.33;;;7.25;;
9716;SDS011;4897;43.570;27.832;2022-08-27T08:53:06;49.38;;;7.03;;
9716;SDS011;4897;43.570;27.832;2022-08-27T08:55:42;43.63;;;6.65;;
9716;SDS011;4897;43.570;27.832;2022-08-27T08:58:15;38.03;;;6.30;;
9716;SDS011;4897;43.570;27.832;2022-08-27T09:00:53;51.42;;;6.63;;
9716;SDS011;4897;43.570;27.832;2022-08-27T09:03:27;59.47;;;7.38;;
9716;SDS011;4897;43.570;27.832;2022-08-27T09:05:58;47.30;;;6.47;;
9716;SDS011;4897;43.570;27.832;2022-08-27T09:08:31;47.20;;;6.57;;
9716;SDS011;4897;43.570;27.832;2022-08-27T09:11:04;51.97;;;6.50;;
9716;SDS011;4897;43.570;27.832;2022-08-27T09:13:36;44.13;;;6.22;;
9716;SDS011;4897;43.570;27.832;2022-08-27T09:16:06;35.13;;;6.13;;
9716;SDS011;4897;43.570;27.832;2022-08-27T09:18:34;33.78;;;5.65;;
9716;SDS011;4897;43.570;27.832;2022-08-27T09:21:06;36.80;;;7.00;;
9716;SDS011;4897;43.570;27.832;2022-08-27T09:23:46;46.45;;;6.50;;
9716;SDS011;4897;43.570;27.832;2022-08-27T09:26:23;50.45;;;5.88;;
9716;SDS011;4897;43.570;27.832;2022-08-27T09:28:57;34.83;;;6.13;;
9716;SDS011;4897;43.570;27.832;2022-08-27T09:31:44;46.50;;;6.88;;
9716;SDS011;4897;43.570;27.832;2022-08-27T09:34:15;33.72;;;5.97;;
9716;SDS011;4897;43.570;27.832;2022-08-27T09:36:47;40.42;;;7.00;;
9716;SDS011;4897;43.570;27.832;2022-08-27T09:39:16;46.22;;;6.07;;
9716;SDS011;4897;43.570;27.832;2022-08-27T09:41:44;38.85;;;6.35;;
9716;SDS011;4897;43.570;27.832;2022-08-27T09:44:15;48.65;;;6.90;;
9716;SDS011;4897;43.570;27.832;2022-08-27T09:46:50;45.50;;;6.63;;
9716;SDS011;4897;43.570;27.832;2022-08-27T09:49:19;54.83;;;7.22;;
9716;SDS011;4897;43.570;27.832;2022-08-27T09:51:49;55.97;;;6.45;;
9716;SDS011;4897;43.570;27.832;2022-08-27T09:54:23;37.25;;;6.03;;
9716;SDS011;4897;43.570;27.832;2022-08-27T09:56:58;30.52;;;5.82;;
9716;SDS011;4897;43.570;27.832;2022-08-27T09:59:28;29.80;;;5.45;;
9716;SDS011;4897;43.570;27.832;2022-08-27T10:02:02;41.03;;;5.72;;
9716;SDS011;4897;43.570;27.832;2022-08-27T10:04:35;52.47;;;6.68;;
9716;SDS011;4897;43.570;27.832;2022-08-27T10:09:59;39.75;;;5.95;;
9716;SDS011;4897;43.570;27.832;2022-08-27T10:12:32;36.42;;;5.78;;
9716;SDS011;4897;43.570;27.832;2022-08-27T10:15:13;38.08;;;6.72;;
9716;SDS011;4897;43.570;27.832;2022-08-27T10:17:43;44.05;;;7.15;;
9716;SDS011;4897;43.570;27.832;2022-08-27T10:20:24;57.38;;;7.35;;
9716;SDS011;4897;43.570;27.832;2022-08-27T10:23:00;37.58;;;6.05;;
9716;SDS011;4897;43.570;27.832;2022-08-27T10:25:39;35.85;;;5.90;;
9716;SDS011;4897;43.570;27.832;2022-08-27T10:28:16;36.30;;;5.78;;
9716;SDS011;4897;43.570;27.832;2022-08-27T10:30:58;38.42;;;6.25;;
9716;SDS011;4897;43.570;27.832;2022-08-27T10:33:36;36.30;;;6.30;;
9716;SDS011;4897;43.570;27.832;2022-08-27T10:36:14;42.38;;;6.38;;
9716;SDS011;4897;43.570;27.832;2022-08-27T10:38:49;39.67;;;5.95;;
9716;SDS011;4897;43.570;27.832;2022-08-27T10:41:25;39.28;;;5.78;;
9716;SDS011;4897;43.570;27.832;2022-08-27T10:44:08;44.53;;;6.43;;
9716;SDS011;4897;43.570;27.832;2022-08-27T10:47:01;30.38;;;5.22;;
9716;SDS011;4897;43.570;27.832;2022-08-27T10:49:40;32.13;;;6.57;;
9716;SDS011;4897;43.570;27.832;2022-08-27T10:52:21;56.38;;;6.88;;
9716;SDS011;4897;43.570;27.832;2022-08-27T10:54:55;40.45;;;6.13;;
9716;SDS011;4897;43.570;27.832;2022-08-27T10:57:41;44.30;;;6.22;;
9716;SDS011;4897;43.570;27.832;2022-08-27T11:00:22;49.55;;;7.07;;
9716;SDS011;4897;43.570;27.832;2022-08-27T11:02:57;34.35;;;5.53;;
9716;SDS011;4897;43.570;27.832;2022-08-27T11:05:31;38.13;;;6.13;;
9716;SDS011;4897;43.570;27.832;2022-08-27T11:08:05;48.30;;;6.43;;
9716;SDS011;4897;43.570;27.832;2022-08-27T11:10:37;41.38;;;5.75;;
9716;SDS011;4897;43.570;27.832;2022-08-27T11:13:09;45.22;;;6.80;;
9716;SDS011;4897;43.570;27.832;2022-08-27T11:15:42;38.13;;;5.57;;
9716;SDS011;4897;43.570;27.832;2022-08-27T11:18:14;36.92;;;5.40;;
9716;SDS011;4897;43.570;27.832;2022-08-27T11:20:47;33.53;;;5.57;;
9716;SDS011;4897;43.570;27.832;2022-08-27T11:23:20;34.55;;;5.40;;
9716;SDS011;4897;43.570;27.832;2022-08-27T11:25:54;47.40;;;6.43;;
9716;SDS011;4897;43.570;27.832;2022-08-27T11:28:23;33.83;;;6.18;;
9716;SDS011;4897;43.570;27.832;2022-08-27T11:31:02;35.33;;;5.88;;
9716;SDS011;4897;43.570;27.832;2022-08-27T11:33:39;32.38;;;5.85;;
9716;SDS011;4897;43.570;27.832;2022-08-27T11:39:30;40.55;;;5.68;;
9716;SDS011;4897;43.570;27.832;2022-08-27T11:42:08;40.30;;;5.60;;
9716;SDS011;4897;43.570;27.832;2022-08-27T11:44:40;34.65;;;6.78;;
9716;SDS011;4897;43.570;27.832;2022-08-27T11:47:13;41.40;;;5.60;;
9716;SDS011;4897;43.570;27.832;2022-08-27T11:49:51;37.13;;;5.13;;
9716;SDS011;4897;43.570;27.832;2022-08-27T11:52:21;41.83;;;6.18;;
9716;SDS011;4897;43.570;27.832;2022-08-27T11:54:54;30.38;;;5.68;;
9716;SDS011;4897;43.570;27.832;2022-08-27T11:57:35;30.88;;;5.53;;
9716;SDS011;4897;43.570;27.832;2022-08-27T12:00:16;44.15;;;6.90;;
9716;SDS011;4897;43.570;27.832;2022-08-27T12:02:55;36.05;;;5.63;;
9716;SDS011;4897;43.570;27.832;2022-08-27T12:05:39;30.75;;;5.72;;
9716;SDS011;4897;43.570;27.832;2022-08-27T12:08:24;38.63;;;6.05;;
9716;SDS011;4897;43.570;27.832;2022-08-27T12:11:02;43.40;;;5.40;;
9716;SDS011;4897;43.570;27.832;2022-08-27T12:13:40;44.45;;;6.50;;
9716;SDS011;4897;43.570;27.832;2022-08-27T12:16:21;29.50;;;5.30;;
9716;SDS011;4897;43.570;27.832;2022-08-27T12:18:59;32.97;;;5.18;;
9716;SDS011;4897;43.570;27.832;2022-08-27T12:21:43;34.47;;;5.00;;
9716;SDS011;4897;43.570;27.832;2022-08-27T12:24:35;33.03;;;5.90;;
9716;SDS011;4897;43.570;27.832;2022-08-27T12:27:16;42.25;;;5.82;;
9716;SDS011;4897;43.570;27.832;2022-08-27T12:29:54;45.63;;;6.55;;
9716;SDS011;4897;43.570;27.832;2022-08-27T12:32:24;37.88;;;5.40;;
9716;SDS011;4897;43.570;27.832;2022-08-27T12:34:56;43.58;;;6.32;;
9716;SDS011;4897;43.570;27.832;2022-08-27T12:37:30;35.20;;;5.10;;
9716;SDS011;4897;43.570;27.832;2022-08-27T12:40:06;30.50;;;5.07;;
9716;SDS011;4897;43.570;27.832;2022-08-27T12:43:03;41.88;;;5.38;;
9716;SDS011;4897;43.570;27.832;2022-08-27T12:45:31;38.78;;;5.90;;
9716;SDS011;4897;43.570;27.832;2022-08-27T12:47:59;31.08;;;5.53;;
9716;SDS011;4897;43.570;27.832;2022-08-27T12:50:29;33.63;;;5.53;;
9716;SDS011;4897;43.570;27.832;2022-08-27T12:53:00;28.05;;;4.88;;
9716;SDS011;4897;43.570;27.832;2022-08-27T12:55:47;29.80;;;4.95;;
9716;SDS011;4897;43.570;27.832;2022-08-27T12:58:26;26.95;;;4.72;;
9716;SDS011;4897;43.570;27.832;2022-08-27T13:01:11;29.05;;;4.75;;
9716;SDS011;4897;43.570;27.832;2022-08-27T13:03:49;35.55;;;5.95;;
9716;SDS011;4897;43.570;27.832;2022-08-27T13:06:20;33.53;;;6.00;;
9716;SDS011;4897;43.570;27.832;2022-08-27T13:08:54;31.52;;;5.00;;
9716;SDS011;4897;43.570;27.832;2022-08-27T13:11:24;37.10;;;5.25;;
9716;SDS011;4897;43.570;27.832;2022-08-27T13:14:04;26.50;;;4.70;;
9716;SDS011;4897;43.570;27.832;2022-08-27T13:16:36;25.67;;;5.05;;
9716;SDS011;4897;43.570;27.832;2022-08-27T13:19:11;28.20;;;5.20;;
9716;SDS011;4897;43.570;27.832;2022-08-27T13:21:44;30.63;;;4.70;;
9716;SDS011;4897;43.570;27.832;2022-08-27T13:24:17;26.88;;;4.78;;
9716;SDS011;4897;43.570;27.832;2022-08-27T13:26:47;36.85;;;5.15;;
9716;SDS011;4897;43.570;27.832;2022-08-27T13:29:19;32.85;;;5.18;;
9716;SDS011;4897;43.570;27.832;2022-08-27T13:31:46;35.55;;;4.97;;
9716;SDS011;4897;43.570;27.832;2022-08-27T13:34:16;29.98;;;4.63;;
9716;SDS011;4897;43.570;27.832;2022-08-27T13:36:50;38.65;;;5.47;;
9716;SDS011;4897;43.570;27.832;2022-08-27T13:39:23;39.63;;;5.95;;
9716;SDS011;4897;43.570;27.832;2022-08-27T13:41:51;44.47;;;5.43;;
9716;SDS011;4897;43.570;27.832;2022-08-27T13:44:19;38.72;;;4.97;;
9716;SDS011;4897;43.570;27.832;2022-08-27T13:46:49;32.10;;;5.82;;
9716;SDS011;4897;43.570;27.832;2022-08-27T13:49:20;22.30;;;4.90;;
9716;SDS011;4897;43.570;27.832;2022-08-27T13:51:48;22.73;;;4.50;;
9716;SDS011;4897;43.570;27.832;2022-08-27T13:54:25;40.72;;;5.47;;
9716;SDS011;4897;43.570;27.832;2022-08-27T13:56:58;36.78;;;5.15;;
9716;SDS011;4897;43.570;27.832;2022-08-27T13:59:32;26.15;;;5.15;;
9716;SDS011;4897;43.570;27.832;2022-08-27T14:02:02;32.88;;;5.05;;
9716;SDS011;4897;43.570;27.832;2022-08-27T14:04:43;35.53;;;5.95;;
9716;SDS011;4897;43.570;27.832;2022-08-27T14:07:21;35.95;;;5.72;;
9716;SDS011;4897;43.570;27.832;2022-08-27T14:09:58;30.73;;;5.00;;
9716;SDS011;4897;43.570;27.832;2022-08-27T14:12:32;31.20;;;5.68;;
9716;SDS011;4897;43.570;27.832;2022-08-27T14:15:14;38.88;;;7.35;;
9716;SDS011;4897;43.570;27.832;2022-08-27T14:17:45;37.72;;;6.45;;
9716;SDS011;4897;43.570;27.832;2022-08-27T14:20:14;29.00;;;5.18;;
9716;SDS011;4897;43.570;27.832;2022-08-27T14:22:43;29.38;;;5.25;;
9716;SDS011;4897;43.570;27.832;2022-08-27T14:25:12;24.55;;;5.38;;
9716;SDS011;4897;43.570;27.832;2022-08-27T14:27:40;31.00;;;5.32;;
9716;SDS011;4897;43.570;27.832;2022-08-27T14:30:09;34.72;;;5.45;;
9716;SDS011;4897;43.570;27.832;2022-08-27T14:32:39;40.67;;;5.70;;
9716;SDS011;4897;43.570;27.832;2022-08-27T14:35:06;33.05;;;6.95;;
9716;SDS011;4897;43.570;27.832;2022-08-27T14:37:37;23.65;;;5.25;;
9716;SDS011;4897;43.570;27.832;2022-08-27T14:40:08;27.05;;;5.30;;
9716;SDS011;4897;43.570;27.832;2022-08-27T14:42:38;29.48;;;5.70;;
9716;SDS011;4897;43.570;27.832;2022-08-27T14:45:06;33.97;;;5.50;;
9716;SDS011;4897;43.570;27.832;2022-08-27T14:47:38;22.23;;;5.45;;
9716;SDS011;4897;43.570;27.832;2022-08-27T14:50:09;33.13;;;5.43;;
9716;SDS011;4897;43.570;27.832;2022-08-27T14:52:38;22.65;;;5.25;;
9716;SDS011;4897;43.570;27.832;2022-08-27T14:55:05;38.00;;;5.90;;
9716;SDS011;4897;43.570;27.832;2022-08-27T14:57:33;41.60;;;6.63;;
9716;SDS011;4897;43.570;27.832;2022-08-27T15:00:02;28.67;;;6.53;;
9716;SDS011;4897;43.570;27.832;2022-08-27T15:02:30;28.48;;;5.50;;
9716;SDS011;4897;43.570;27.832;2022-08-27T15:04:57;32.67;;;5.95;;
9716;SDS011;4897;43.570;27.832;2022-08-27T15:07:24;42.97;;;6.30;;
9716;SDS011;4897;43.570;27.832;2022-08-27T15:09:51;27.85;;;5.93;;
9716;SDS011;4897;43.570;27.832;2022-08-27T15:12:19;43.08;;;6.03;;
9716;SDS011;4897;43.570;27.832;2022-08-27T15:14:46;30.10;;;5.40;;
9716;SDS011;4897;43.570;27.832;2022-08-27T15:17:15;33.95;;;5.53;;